Idaho Falls Regional Airport
KIDA : now visible

Airfield :











YOU CAN JOIN US ON...

 
LOGIN :

Register | Disclaimer

   EN    FR    IT 

 









Legend :    VFR   Marginal VFR   IFR   Intensive IFR   Very Intensive IFR
Visi :
Ceiling :
>= 8 km
>= 3000ft
5 to 8 km
1000 to 3000 ft
1500m to 5 km
500 to 1000 ft
800 to 1500m
200 to 500 ft
< 800m
< 200 ft
Symbols :   Thunderstorms  Fog  Heavy snow  Heavy precipitations  Wind > 20 kt






- Airport Elevation : 4744 ft
- IATA code : IDA


KIDA - Idaho Falls Regional

CURRENT METAR :
  • 042253Z 22011KT 10SM SCT070 31/08 A3005 RMK AO2 SLP135 T03060078

EXPIRED METARs :
  • 042153Z 21015KT 10SM SCT070 30/06 A3008 RMK AO2 SLP141 T03000061
  • 042053Z COR 21009KT 10SM SCT080 30/08 A3009 RMK AO2 SLP145 T03000083 56012

TAF KIDA
Valid from the 05 at 00:00 until the 06 at 00:00 UTC


042329Z 0500/0524 21011KT P6SM FEW080
FM050200 21006KT P6SM SKC
FM051800 21009KT P6SM FEW090
KZLC FIR / North America



MET'MAP, your aeronautical weather chart ! - Copyright ORBIFLY December 2007 - Disclaimer

ORBIFLY MET'MAP TEAM :

Programming & Development : Alexandra Zaïnal
Concept & original design : Baudouin d'Aumeries
Assistance for programming : Marc-Olivier Méhu
Technical & hardware support : Manuel Goepfert

Contact : metmap@orbifly.com




SOURCES & CREDITS :

   NOAA       Earth
Advisory